createdAt,value
2022-12-11T00:01:12.058Z,60.20
2022-12-11T00:03:42.781Z,56.10
2022-12-11T00:06:14.056Z,63.30
2022-12-11T00:11:13.035Z,69.00
2022-12-11T00:13:41.782Z,61.80
2022-12-11T00:16:10.824Z,58.90
2022-12-11T00:18:39.353Z,52.70
2022-12-11T00:21:11.370Z,53.10
2022-12-11T00:23:39.618Z,56.70
2022-12-11T00:26:10.267Z,55.60
2022-12-11T00:28:38.574Z,48.10
2022-12-11T00:31:08.772Z,52.90
2022-12-11T00:33:37.220Z,56.70
2022-12-11T00:36:11.650Z,54.70
2022-12-11T00:38:39.934Z,50.40
2022-12-11T00:41:08.238Z,51.30
2022-12-11T00:43:36.473Z,51.60
2022-12-11T00:46:04.754Z,50.40
2022-12-11T00:48:33.135Z,47.60
2022-12-11T00:51:01.263Z,50.80
2022-12-11T00:53:29.658Z,52.10
2022-12-11T00:55:57.957Z,56.00
2022-12-11T00:58:26.174Z,57.20
2022-12-11T01:00:54.667Z,61.70
2022-12-11T01:03:22.967Z,62.40
2022-12-11T01:05:53.193Z,50.50
2022-12-11T01:08:22.017Z,58.50
2022-12-11T01:10:51.159Z,57.80
2022-12-11T01:13:19.312Z,54.60
2022-12-11T01:15:47.527Z,52.70
2022-12-11T01:18:16.044Z,57.60
2022-12-11T01:20:44.159Z,54.50
2022-12-11T01:23:13.493Z,50.00
2022-12-11T01:25:42.527Z,47.70
2022-12-11T01:28:10.963Z,61.00
2022-12-11T01:30:42.081Z,52.40
2022-12-11T01:33:10.921Z,60.40
2022-12-11T01:35:40.415Z,61.00
2022-12-11T01:38:10.494Z,56.90
2022-12-11T01:40:38.719Z,55.10
2022-12-11T01:43:11.660Z,50.30
2022-12-11T01:45:44.743Z,48.60
2022-12-11T01:48:19.233Z,49.50
2022-12-11T01:50:49.826Z,40.30
2022-12-11T01:53:32.548Z,48.50
2022-12-11T01:56:01.231Z,48.10
2022-12-11T01:58:43.987Z,47.30
2022-12-11T02:05:40.530Z,51.00
2022-12-11T02:08:10.857Z,49.00
2022-12-11T02:10:54.355Z,49.00
2022-12-11T02:13:33.400Z,48.40
2022-12-11T02:16:19.485Z,46.60
2022-12-11T02:19:06.874Z,42.90
2022-12-11T02:21:41.327Z,46.00
2022-12-11T02:24:18.685Z,43.30
2022-12-11T02:27:31.805Z,43.10
2022-12-11T02:30:07.108Z,37.90
2022-12-11T02:32:59.098Z,42.40
2022-12-11T02:35:41.281Z,47.70
2022-12-11T02:38:24.108Z,45.20
2022-12-11T02:40:55.579Z,42.30
2022-12-11T02:43:25.527Z,47.10
2022-12-11T02:45:54.475Z,40.40
2022-12-11T02:48:24.385Z,34.00
2022-12-11T02:50:58.217Z,44.70
2022-12-11T02:53:29.353Z,41.30
2022-12-11T02:56:13.147Z,38.40
2022-12-11T02:58:49.934Z,48.10
2022-12-11T03:01:19.957Z,47.30
2022-12-11T03:03:48.356Z,43.30
2022-12-11T03:06:21.529Z,43.50
2022-12-11T03:08:51.953Z,41.20
2022-12-11T03:11:20.034Z,47.30
2022-12-11T03:13:48.300Z,43.10
2022-12-11T03:16:30.560Z,40.10
2022-12-11T03:19:12.775Z,45.60
2022-12-11T03:21:48.878Z,41.70
2022-12-11T03:24:30.364Z,42.50
2022-12-11T03:27:06.794Z,41.70
2022-12-11T03:29:41.238Z,41.50
2022-12-11T03:32:23.114Z,42.30
2022-12-11T03:34:58.552Z,45.40
2022-12-11T03:37:31.256Z,45.90
2022-12-11T03:40:06.701Z,41.70
2022-12-11T03:42:36.769Z,41.50
2022-12-11T03:45:06.651Z,42.20
2022-12-11T03:47:35.398Z,38.10
2022-12-11T03:50:07.488Z,37.20
2022-12-11T03:52:44.006Z,36.60
2022-12-11T03:55:16.947Z,38.40
2022-12-11T03:57:45.513Z,34.10
2022-12-11T04:00:16.797Z,40.60
2022-12-11T04:03:09.695Z,42.90
2022-12-11T04:05:49.583Z,44.70
2022-12-11T04:08:20.739Z,46.40
2022-12-11T04:13:38.574Z,49.40
2022-12-11T04:16:07.479Z,42.80
2022-12-11T04:18:54.438Z,44.70
2022-12-11T04:21:41.132Z,48.00
2022-12-11T04:24:15.460Z,50.70
2022-12-11T04:26:47.511Z,47.60
2022-12-11T04:29:15.618Z,53.00
2022-12-11T04:31:43.683Z,46.80
2022-12-11T04:34:12.098Z,56.00
2022-12-11T04:36:40.165Z,40.60
2022-12-11T04:39:08.211Z,43.50
2022-12-11T04:41:37.238Z,41.20
2022-12-11T04:44:05.831Z,43.70
2022-12-11T04:46:34.489Z,46.80
2022-12-11T04:49:02.748Z,45.20
2022-12-11T04:51:30.869Z,48.60
2022-12-11T04:53:59.616Z,45.50
2022-12-11T04:56:27.981Z,37.60
2022-12-11T04:58:56.062Z,53.20
2022-12-11T05:01:24.255Z,49.30
2022-12-11T05:03:52.422Z,46.70
2022-12-11T05:06:20.479Z,48.50
2022-12-11T05:08:48.571Z,47.10
2022-12-11T05:11:17.549Z,42.10
2022-12-11T05:13:45.986Z,45.40
2022-12-11T05:16:16.322Z,39.00
2022-12-11T05:18:44.600Z,45.90
2022-12-11T05:21:14.296Z,40.60
2022-12-11T05:23:42.811Z,49.00
2022-12-11T05:26:17.284Z,51.20
2022-12-11T05:28:46.474Z,47.80
2022-12-11T05:31:18.226Z,48.20
2022-12-11T05:33:47.507Z,50.60
2022-12-11T05:36:27.657Z,49.00
2022-12-11T05:38:56.168Z,46.80
2022-12-11T05:41:26.222Z,43.00
2022-12-11T05:43:54.292Z,43.30
2022-12-11T05:46:27.791Z,42.30
2022-12-11T05:49:01.062Z,45.30
2022-12-11T05:51:30.472Z,47.00
2022-12-11T05:53:58.702Z,46.60
2022-12-11T05:56:29.838Z,41.10
2022-12-11T06:01:32.255Z,32.70
2022-12-11T06:04:01.179Z,34.50
2022-12-11T06:06:29.438Z,42.50
2022-12-11T06:08:59.034Z,38.50
2022-12-11T06:11:29.289Z,42.10
2022-12-11T06:13:57.748Z,47.70
2022-12-11T06:16:25.897Z,40.30
2022-12-11T06:18:58.010Z,40.10
2022-12-11T06:21:30.039Z,50.50
2022-12-11T06:24:00.768Z,50.90
2022-12-11T06:26:29.805Z,47.40
2022-12-11T06:28:57.916Z,48.40
2022-12-11T06:31:26.494Z,56.30
2022-12-11T06:33:54.726Z,46.90
2022-12-11T06:36:24.532Z,35.60
2022-12-11T06:38:53.069Z,35.90
2022-12-11T06:41:21.349Z,32.70
2022-12-11T06:43:50.748Z,41.60
2022-12-11T06:46:20.184Z,43.40
2022-12-11T06:48:49.463Z,45.70
2022-12-11T06:51:20.004Z,40.70
2022-12-11T06:53:56.522Z,40.10
2022-12-11T06:56:24.929Z,39.60
2022-12-11T06:58:53.153Z,37.10
2022-12-11T07:01:24.620Z,39.30
2022-12-11T07:04:00.030Z,41.40
2022-12-11T07:06:30.095Z,43.50
2022-12-11T07:08:58.291Z,45.40
2022-12-11T07:11:26.383Z,39.20
2022-12-11T07:13:54.638Z,43.10
2022-12-11T07:16:23.245Z,41.80
2022-12-11T07:18:52.067Z,43.90
2022-12-11T07:21:21.164Z,44.60
2022-12-11T07:23:50.223Z,46.50
2022-12-11T07:26:21.022Z,39.90
2022-12-11T07:28:49.483Z,38.30
2022-12-11T07:31:25.029Z,42.20
2022-12-11T07:33:58.573Z,43.60
2022-12-11T07:36:28.014Z,42.20
2022-12-11T07:38:56.733Z,40.20
2022-12-11T07:41:25.145Z,44.70
2022-12-11T07:43:57.291Z,42.10
2022-12-11T07:46:28.243Z,36.30
2022-12-11T07:48:56.425Z,38.20
2022-12-11T07:51:28.120Z,34.10
2022-12-11T07:54:01.591Z,34.20
2022-12-11T07:56:30.736Z,36.60
2022-12-11T07:59:04.967Z,35.80
2022-12-11T08:01:36.556Z,35.70
2022-12-11T08:04:07.360Z,37.60
2022-12-11T08:06:37.806Z,38.50
2022-12-11T08:09:09.695Z,37.90
2022-12-11T08:11:38.419Z,37.50
2022-12-11T08:14:07.977Z,39.10
2022-12-11T08:16:36.661Z,36.80
2022-12-11T08:19:04.776Z,37.00
2022-12-11T08:21:32.849Z,34.10
2022-12-11T08:24:00.968Z,38.30
2022-12-11T08:26:31.695Z,41.70
2022-12-11T08:29:02.200Z,45.00
2022-12-11T08:31:30.844Z,49.30
2022-12-11T08:33:59.071Z,53.50
2022-12-11T08:36:27.613Z,46.20
2022-12-11T08:38:56.979Z,39.60
2022-12-11T08:41:30.326Z,41.40
2022-12-11T08:44:00.392Z,46.00
2022-12-11T08:46:31.452Z,42.70
2022-12-11T08:49:00.138Z,65.60
2022-12-11T08:51:29.746Z,45.20
2022-12-11T08:54:01.223Z,37.50
2022-12-11T08:56:30.202Z,37.10
2022-12-11T08:59:01.892Z,35.20
2022-12-11T09:01:30.589Z,33.90
2022-12-11T09:03:59.306Z,34.30
2022-12-11T09:06:30.025Z,33.80
2022-12-11T09:09:00.961Z,37.60
2022-12-11T09:11:32.907Z,26.90
2022-12-11T09:14:07.181Z,31.60
2022-12-11T09:16:40.214Z,25.60
2022-12-11T09:19:13.918Z,32.20
2022-12-11T09:21:43.720Z,31.90
2022-12-11T09:24:13.792Z,27.00
2022-12-11T09:26:42.332Z,31.90
2022-12-11T09:29:11.880Z,25.90
2022-12-11T09:31:41.004Z,23.80
2022-12-11T09:34:12.370Z,23.60
2022-12-11T09:36:41.736Z,24.00
2022-12-11T09:39:11.899Z,23.60
2022-12-11T09:41:58.287Z,22.90
2022-12-11T09:44:41.581Z,27.00
2022-12-11T09:47:57.371Z,28.50
2022-12-11T09:50:29.272Z,27.90
2022-12-11T09:53:20.806Z,24.70
2022-12-11T09:56:07.176Z,26.80
2022-12-11T09:59:01.807Z,39.80
2022-12-11T10:01:36.106Z,28.50
2022-12-11T10:04:36.917Z,29.00
2022-12-11T10:07:20.790Z,25.60
2022-12-11T10:10:17.082Z,24.20
2022-12-11T10:12:58.651Z,22.20
2022-12-11T10:15:37.731Z,23.20
2022-12-11T10:18:12.774Z,29.10
2022-12-11T10:20:42.891Z,26.20
2022-12-11T10:23:21.199Z,25.30
2022-12-11T10:25:58.721Z,22.70
2022-12-11T10:28:28.120Z,28.80
2022-12-11T10:31:11.669Z,24.70
2022-12-11T10:34:18.238Z,24.10
2022-12-11T10:36:46.525Z,24.10
2022-12-11T10:39:20.843Z,25.30
2022-12-11T10:41:54.825Z,22.00
2022-12-11T10:44:29.402Z,21.90
2022-12-11T10:47:19.127Z,23.60
2022-12-11T10:50:02.145Z,19.70
2022-12-11T10:52:45.095Z,20.90
2022-12-11T10:55:27.463Z,23.20
2022-12-11T10:58:01.911Z,46.80
2022-12-11T11:00:39.721Z,41.40
2022-12-11T11:03:25.833Z,32.60
2022-12-11T11:06:18.342Z,31.00
2022-12-11T11:08:51.993Z,31.20
2022-12-11T11:11:36.765Z,37.10
2022-12-11T11:14:10.993Z,35.10
2022-12-11T11:16:41.620Z,51.30
2022-12-11T11:19:17.926Z,39.90
2022-12-11T11:21:53.595Z,33.50
2022-12-11T11:24:27.794Z,47.60
2022-12-11T11:27:13.343Z,33.00
2022-12-11T11:29:43.324Z,27.30
2022-12-11T11:32:20.550Z,23.80
2022-12-11T11:34:48.730Z,29.40
2022-12-11T11:37:27.389Z,29.60
2022-12-11T11:40:03.415Z,30.00
2022-12-11T11:42:51.443Z,34.90
2022-12-11T11:45:33.470Z,26.00
2022-12-11T11:48:24.685Z,35.20
2022-12-11T11:50:54.229Z,28.10
2022-12-11T11:53:37.405Z,25.90
2022-12-11T11:56:18.514Z,27.00
2022-12-11T12:01:17.881Z,24.80
2022-12-11T12:03:48.112Z,25.70
2022-12-11T12:06:28.347Z,34.80
2022-12-11T12:09:09.245Z,32.50
2022-12-11T12:12:08.882Z,29.70
2022-12-11T12:14:52.888Z,37.80
2022-12-11T12:17:38.600Z,32.70
2022-12-11T12:20:10.685Z,32.50
2022-12-11T12:22:53.794Z,38.40
2022-12-11T12:25:49.206Z,29.90
2022-12-11T12:28:41.879Z,21.90
2022-12-11T12:31:44.274Z,20.60
2022-12-11T12:34:35.649Z,21.90
2022-12-11T12:37:38.134Z,21.90
2022-12-11T12:40:28.959Z,17.90
2022-12-11T12:42:57.158Z,20.40
2022-12-11T12:45:30.600Z,20.40
2022-12-11T12:47:58.903Z,25.70
2022-12-11T12:50:34.924Z,22.30
2022-12-11T12:53:06.483Z,24.40
2022-12-11T12:55:35.885Z,22.30
2022-12-11T12:58:06.511Z,24.70
2022-12-11T13:00:40.313Z,31.00
2022-12-11T13:03:14.974Z,63.60
2022-12-11T13:05:55.031Z,42.80
2022-12-11T13:08:43.755Z,39.40
2022-12-11T13:11:14.105Z,42.00
2022-12-11T13:13:51.608Z,27.90
2022-12-11T13:16:38.064Z,27.10
2022-12-11T13:19:27.814Z,38.90
2022-12-11T13:21:58.005Z,37.20
2022-12-11T13:24:28.480Z,29.90
2022-12-11T13:26:56.890Z,28.90
2022-12-11T13:29:42.699Z,34.70
2022-12-11T13:32:11.086Z,25.70
2022-12-11T13:34:42.856Z,21.50
2022-12-11T13:37:41.821Z,25.50
2022-12-11T13:40:24.406Z,28.10
2022-12-11T13:42:59.194Z,40.90
2022-12-11T13:45:30.610Z,36.10
2022-12-11T13:47:59.701Z,27.30
2022-12-11T13:50:35.197Z,26.90
2022-12-11T13:53:05.000Z,41.80
2022-12-11T13:55:34.926Z,31.70
2022-12-11T13:58:05.563Z,33.80
2022-12-11T14:00:34.052Z,37.50
2022-12-11T14:03:07.641Z,35.50
2022-12-11T14:05:36.615Z,32.80
2022-12-11T14:08:12.058Z,33.10
2022-12-11T14:10:40.527Z,40.20
2022-12-11T14:13:24.068Z,32.30
2022-12-11T14:15:53.598Z,32.00
2022-12-11T14:18:24.823Z,38.50
2022-12-11T14:21:02.150Z,30.70
2022-12-11T14:23:33.545Z,45.40
2022-12-11T14:26:17.833Z,39.10
2022-12-11T14:28:46.085Z,30.20
2022-12-11T14:31:17.583Z,29.60
2022-12-11T14:33:52.012Z,36.00
2022-12-11T14:36:21.079Z,41.10
2022-12-11T14:39:18.937Z,46.60
2022-12-11T14:41:47.590Z,41.90
2022-12-11T14:44:19.183Z,37.00
2022-12-11T14:46:57.094Z,28.10
2022-12-11T14:49:34.947Z,29.30
2022-12-11T14:52:05.477Z,31.30
2022-12-11T14:54:42.356Z,25.10
2022-12-11T14:57:25.832Z,28.80
2022-12-11T14:59:56.561Z,26.50
2022-12-11T15:02:31.161Z,28.60
2022-12-11T15:05:19.103Z,30.70
2022-12-11T15:08:03.962Z,32.00
2022-12-11T15:10:37.206Z,36.20
2022-12-11T15:13:06.630Z,41.80
2022-12-11T15:15:47.626Z,52.70
2022-12-11T15:18:38.581Z,37.60
2022-12-11T15:21:10.055Z,40.40
2022-12-11T15:23:53.509Z,41.70
2022-12-11T15:26:39.736Z,31.20
2022-12-11T15:29:25.686Z,28.50
2022-12-11T15:32:02.947Z,36.40
2022-12-11T15:34:43.015Z,27.30
2022-12-11T15:37:18.487Z,37.20
2022-12-11T15:39:46.774Z,43.70
2022-12-11T15:42:25.061Z,41.20
2022-12-11T15:44:55.857Z,36.80
2022-12-11T15:47:27.006Z,26.40
2022-12-11T15:52:31.395Z,25.90
2022-12-11T15:54:59.453Z,28.00
2022-12-11T15:57:27.716Z,28.30
2022-12-11T15:59:58.708Z,27.50
2022-12-11T16:02:28.081Z,34.30
2022-12-11T16:04:57.522Z,31.20
2022-12-11T16:07:26.864Z,28.70
2022-12-11T16:09:55.068Z,25.20
2022-12-11T16:12:23.348Z,27.90
2022-12-11T16:14:51.546Z,29.20
2022-12-11T16:17:20.088Z,25.80
2022-12-11T16:19:48.240Z,28.10
2022-12-11T16:22:16.631Z,37.60
2022-12-11T16:24:44.740Z,37.00
2022-12-11T16:27:13.102Z,38.90
2022-12-11T16:29:42.003Z,28.90
2022-12-11T16:32:10.551Z,30.00
2022-12-11T16:34:38.916Z,24.10
2022-12-11T16:37:09.149Z,35.90
2022-12-11T16:39:38.725Z,28.30
2022-12-11T16:42:07.137Z,26.80
2022-12-11T16:44:39.530Z,29.10
2022-12-11T16:47:10.886Z,34.80
2022-12-11T16:49:39.530Z,33.10
2022-12-11T16:52:09.309Z,33.60
2022-12-11T16:54:37.860Z,33.60
2022-12-11T16:57:06.198Z,32.50
2022-12-11T16:59:37.437Z,34.00
2022-12-11T17:02:06.638Z,30.00
2022-12-11T17:04:34.896Z,32.90
2022-12-11T17:07:03.562Z,42.10
2022-12-11T17:09:32.536Z,43.70
2022-12-11T17:12:02.126Z,36.00
2022-12-11T17:14:30.284Z,38.20
2022-12-11T17:16:58.573Z,32.90
2022-12-11T17:19:27.191Z,30.00
2022-12-11T17:21:56.138Z,28.60
2022-12-11T17:24:24.393Z,31.20
2022-12-11T17:26:53.251Z,38.30
2022-12-11T17:29:22.093Z,33.70
2022-12-11T17:31:50.354Z,37.20
2022-12-11T17:34:18.693Z,32.70
2022-12-11T17:36:46.819Z,42.60
2022-12-11T17:39:15.117Z,39.90
2022-12-11T17:41:43.512Z,34.00
2022-12-11T17:44:13.188Z,32.90
2022-12-11T17:46:41.668Z,32.80
2022-12-11T17:49:10.194Z,29.50
2022-12-11T17:51:38.287Z,31.70
2022-12-11T17:54:06.554Z,36.10
2022-12-11T17:56:36.238Z,30.70
2022-12-11T17:59:04.981Z,36.40
2022-12-11T18:01:33.397Z,38.40
2022-12-11T18:04:02.420Z,38.00
2022-12-11T18:06:31.579Z,34.60
2022-12-11T18:09:00.173Z,30.50
2022-12-11T18:11:28.575Z,30.10
2022-12-11T18:13:56.914Z,30.40
2022-12-11T18:16:32.422Z,27.90
2022-12-11T18:19:01.297Z,31.30
2022-12-11T18:21:32.978Z,26.20
2022-12-11T18:24:02.092Z,29.10
2022-12-11T18:26:30.229Z,36.20
2022-12-11T18:28:58.457Z,38.40
2022-12-11T18:31:26.616Z,36.30
2022-12-11T18:33:55.212Z,43.00
2022-12-11T18:36:23.466Z,33.50
2022-12-11T18:38:51.584Z,32.80
2022-12-11T18:41:20.327Z,35.10
2022-12-11T18:43:52.222Z,31.00
2022-12-11T18:46:21.647Z,28.50
2022-12-11T18:48:50.600Z,28.50
2022-12-11T18:51:24.879Z,29.20
2022-12-11T18:53:53.770Z,28.80
2022-12-11T18:56:23.346Z,32.10
2022-12-11T18:58:52.320Z,34.00
2022-12-11T19:01:24.151Z,34.40
2022-12-11T19:04:03.267Z,36.10
2022-12-11T19:06:35.573Z,32.40
2022-12-11T19:09:06.394Z,26.60
2022-12-11T19:11:36.200Z,28.70
2022-12-11T19:14:06.062Z,28.50
2022-12-11T19:16:38.926Z,22.80
2022-12-11T19:19:11.696Z,23.10
2022-12-11T19:21:41.132Z,22.30
2022-12-11T19:24:15.001Z,26.30
2022-12-11T19:26:43.879Z,32.20
2022-12-11T19:29:26.815Z,30.00
2022-12-11T19:31:55.999Z,34.70
2022-12-11T19:34:25.162Z,35.90
2022-12-11T19:36:53.790Z,26.70
2022-12-11T19:39:24.376Z,27.00
2022-12-11T19:41:52.531Z,31.50
2022-12-11T19:44:21.032Z,30.30
2022-12-11T19:46:49.424Z,28.00
2022-12-11T19:49:18.395Z,24.50
2022-12-11T19:51:46.693Z,27.20
2022-12-11T19:54:17.009Z,36.70
2022-12-11T19:56:45.473Z,35.00
2022-12-11T19:59:16.769Z,32.00
2022-12-11T20:01:48.210Z,32.70
2022-12-11T20:04:18.187Z,35.00
2022-12-11T20:06:47.199Z,27.60
2022-12-11T20:09:16.050Z,30.10
2022-12-11T20:11:45.527Z,31.80
2022-12-11T20:14:23.069Z,27.90
2022-12-11T20:17:10.505Z,30.60
2022-12-11T20:19:41.276Z,27.60
2022-12-11T20:22:09.626Z,29.00
2022-12-11T20:24:37.940Z,29.20
2022-12-11T20:27:06.304Z,36.10
2022-12-11T20:29:34.502Z,37.50
2022-12-11T20:32:02.778Z,37.60
2022-12-11T20:34:31.502Z,39.90
2022-12-11T20:37:00.458Z,46.60
2022-12-11T20:39:29.277Z,43.80
2022-12-11T20:41:57.619Z,37.80
2022-12-11T20:44:25.929Z,40.00
2022-12-11T20:46:54.324Z,34.50
2022-12-11T20:49:22.744Z,39.40
2022-12-11T20:51:51.992Z,43.20
2022-12-11T20:54:20.116Z,40.20
2022-12-11T20:56:48.638Z,40.90
2022-12-11T20:59:17.697Z,41.20
2022-12-11T21:01:45.849Z,38.10
2022-12-11T21:04:14.264Z,44.80
2022-12-11T21:06:42.980Z,51.10
2022-12-11T21:09:19.442Z,45.50
2022-12-11T21:11:48.434Z,43.80
2022-12-11T21:14:17.933Z,44.40
2022-12-11T21:16:46.751Z,44.80
2022-12-11T21:19:22.395Z,41.70
2022-12-11T21:21:50.967Z,48.00
2022-12-11T21:24:23.295Z,34.30
2022-12-11T21:26:51.406Z,38.10
2022-12-11T21:29:19.688Z,38.00
2022-12-11T21:31:48.315Z,32.00
2022-12-11T21:34:20.654Z,33.80
2022-12-11T21:36:56.527Z,34.60
2022-12-11T21:39:26.377Z,37.60
2022-12-11T21:41:54.716Z,43.30
2022-12-11T21:47:11.231Z,42.90
2022-12-11T21:49:39.470Z,36.60
2022-12-11T21:52:08.711Z,35.80
2022-12-11T21:54:37.011Z,33.00
2022-12-11T21:57:05.247Z,32.50
2022-12-11T21:59:33.389Z,31.60
2022-12-11T22:02:01.819Z,26.60
2022-12-11T22:04:30.151Z,28.20
2022-12-11T22:06:58.279Z,30.10
2022-12-11T22:09:26.621Z,30.20
2022-12-11T22:11:58.435Z,31.90
2022-12-11T22:14:27.277Z,40.80
2022-12-11T22:16:55.692Z,33.90
2022-12-11T22:19:29.081Z,32.30
2022-12-11T22:22:00.734Z,38.20
2022-12-11T22:24:28.845Z,33.90
2022-12-11T22:26:57.157Z,31.10
2022-12-11T22:29:25.529Z,30.20
2022-12-11T22:31:54.571Z,30.00
2022-12-11T22:34:23.142Z,33.50
2022-12-11T22:36:51.734Z,32.10
2022-12-11T22:39:20.060Z,35.60
2022-12-11T22:41:48.367Z,36.60
2022-12-11T22:44:20.150Z,35.20
2022-12-11T22:46:50.499Z,34.50
2022-12-11T22:49:20.487Z,30.20
2022-12-11T22:51:49.183Z,32.00
2022-12-11T22:54:17.386Z,33.00
2022-12-11T22:56:46.310Z,27.80
2022-12-11T22:59:14.778Z,28.90
2022-12-11T23:01:42.951Z,26.30
2022-12-11T23:04:11.931Z,27.30
2022-12-11T23:06:40.040Z,36.60
2022-12-11T23:09:08.157Z,35.90
2022-12-11T23:11:38.435Z,31.60
2022-12-11T23:14:09.031Z,33.10
2022-12-11T23:16:37.491Z,30.60
2022-12-11T23:19:06.045Z,34.00
2022-12-11T23:21:34.486Z,29.40
2022-12-11T23:24:03.915Z,33.40
2022-12-11T23:26:33.019Z,31.60
2022-12-11T23:29:02.121Z,28.40
2022-12-11T23:31:31.292Z,29.50
2022-12-11T23:33:59.771Z,29.10
2022-12-11T23:36:28.673Z,24.10
2022-12-11T23:38:57.178Z,31.00
2022-12-11T23:41:25.595Z,37.40
2022-12-11T23:43:53.756Z,33.60
2022-12-11T23:46:24.518Z,35.30
2022-12-11T23:48:53.879Z,35.90
2022-12-11T23:51:24.391Z,39.40
2022-12-11T23:53:53.174Z,36.30
2022-12-11T23:56:27.790Z,32.90
2022-12-11T23:58:57.283Z,34.00
